createdAt,value
2022-08-09T00:00:30.415Z,81.82
2022-08-09T00:01:43.039Z,81.42
2022-08-09T00:02:31.683Z,80.92
2022-08-09T00:04:10.181Z,81.05
2022-08-09T00:04:34.662Z,80.96
2022-08-09T00:06:16.562Z,81.67
2022-08-09T00:06:31.998Z,81.67
2022-08-09T00:07:30.354Z,81.05
2022-08-09T00:08:33.003Z,81.56
2022-08-09T00:09:31.265Z,82.07
2022-08-09T00:10:30.302Z,81.87
2022-08-09T00:11:58.617Z,81.76
2022-08-09T00:12:31.291Z,81.80
2022-08-09T00:13:31.710Z,81.70
2022-08-09T00:14:37.820Z,82.01
2022-08-09T00:15:57.725Z,82.61
2022-08-09T00:16:36.429Z,82.41
2022-08-09T00:18:05.839Z,82.31
2022-08-09T00:18:31.370Z,82.10
2022-08-09T00:19:30.199Z,82.31
2022-08-09T00:20:31.604Z,82.71
2022-08-09T00:21:30.175Z,82.24
2022-08-09T00:22:35.045Z,82.95
2022-08-09T00:23:54.642Z,82.75
2022-08-09T00:24:31.153Z,83.46
2022-08-09T00:25:33.068Z,83.56
2022-08-09T00:26:32.790Z,83.15
2022-08-09T00:27:30.119Z,82.85
2022-08-09T00:28:31.109Z,83.66
2022-08-09T00:30:10.249Z,83.66
2022-08-09T00:30:31.085Z,83.66
2022-08-09T00:31:58.095Z,83.66
2022-08-09T00:32:31.076Z,83.46
2022-08-09T00:33:49.123Z,83.76
2022-08-09T00:34:32.714Z,83.36
2022-08-09T00:35:30.019Z,83.26
2022-08-09T00:36:31.014Z,83.05
2022-08-09T00:37:32.285Z,83.36
2022-08-09T00:38:30.014Z,83.66
2022-08-09T00:40:13.518Z,83.70
2022-08-09T00:40:31.339Z,83.66
2022-08-09T00:44:15.389Z,83.66
2022-08-09T00:44:18.856Z,84.06
2022-08-09T00:44:24.768Z,84.47
2022-08-09T00:44:31.329Z,84.87
2022-08-09T00:45:29.906Z,84.37
2022-08-09T00:46:55.427Z,83.80
2022-08-09T00:47:35.879Z,83.90
2022-08-09T00:48:30.875Z,83.86
2022-08-09T00:49:30.379Z,84.11
2022-08-09T00:50:29.853Z,83.90
2022-08-09T00:51:34.100Z,83.86
2022-08-09T00:52:31.178Z,84.00
2022-08-09T00:53:29.816Z,84.00
2022-08-09T00:54:31.433Z,83.90
2022-08-09T00:56:04.026Z,84.20
2022-08-09T00:56:30.786Z,84.20
2022-08-09T00:57:33.704Z,84.11
2022-08-09T00:58:30.767Z,84.41
2022-08-09T00:59:41.102Z,85.02
2022-08-09T01:00:30.741Z,84.61
2022-08-09T01:01:32.134Z,84.31
2022-08-09T01:02:29.869Z,84.04
2022-08-09T01:03:29.712Z,85.05
2022-08-09T01:04:29.707Z,85.05
2022-08-09T01:05:53.181Z,85.46
2022-08-09T01:06:53.175Z,85.56
2022-08-09T01:07:38.019Z,85.56
2022-08-09T01:08:30.650Z,85.56
2022-08-09T01:09:36.938Z,85.66
2022-08-09T01:10:30.631Z,85.76
2022-08-09T01:11:29.616Z,85.66
2022-08-09T01:12:29.772Z,85.46
2022-08-09T01:13:31.120Z,85.05
2022-08-09T01:14:30.598Z,85.46
2022-08-09T01:15:29.575Z,85.05
2022-08-09T01:16:29.563Z,85.05
2022-08-09T01:17:30.215Z,85.46
2022-08-09T01:18:30.437Z,85.76
2022-08-09T01:19:43.018Z,85.86
2022-08-09T01:20:30.522Z,85.66
2022-08-09T01:21:41.149Z,86.27
2022-08-09T01:22:30.677Z,86.16
2022-08-09T01:24:03.530Z,86.07
2022-08-09T01:24:30.482Z,85.80
2022-08-09T01:25:29.458Z,86.16
2022-08-09T01:26:29.455Z,86.27
2022-08-09T01:27:29.452Z,85.76
2022-08-09T01:28:29.429Z,86.00
2022-08-09T01:29:29.425Z,86.21
2022-08-09T01:30:46.689Z,86.10
2022-08-09T01:32:32.231Z,85.86
2022-08-09T01:32:34.022Z,86.21
2022-08-09T01:33:29.378Z,86.00
2022-08-09T01:34:29.399Z,85.80
2022-08-09T01:35:38.464Z,85.90
2022-08-09T01:36:30.350Z,86.31
2022-08-09T01:38:06.316Z,86.31
2022-08-09T01:38:30.313Z,86.71
2022-08-09T01:39:29.373Z,86.91
2022-08-09T01:40:29.330Z,87.02
2022-08-09T01:41:29.280Z,87.52
2022-08-09T01:42:29.284Z,87.52
2022-08-09T01:43:29.261Z,87.52
2022-08-09T01:44:29.247Z,87.52
2022-08-09T01:45:29.296Z,87.82
2022-08-09T01:46:29.227Z,87.82
2022-08-09T01:47:31.295Z,87.73
2022-08-09T01:48:29.796Z,87.82
2022-08-09T01:49:38.750Z,87.73
2022-08-09T01:50:36.819Z,87.62
2022-08-09T01:51:32.209Z,87.52
2022-08-09T01:52:29.962Z,87.93
2022-08-09T01:53:41.425Z,87.62
2022-08-09T01:54:32.787Z,88.13
2022-08-09T01:55:29.135Z,88.13
2022-08-09T01:56:29.126Z,88.23
2022-08-09T01:57:29.168Z,88.33
2022-08-09T01:58:36.183Z,88.33
2022-08-09T01:59:32.436Z,88.53
2022-08-09T02:00:35.053Z,88.33
2022-08-09T02:01:30.589Z,88.02
2022-08-09T02:02:31.579Z,88.74
2022-08-09T02:03:29.042Z,88.53
2022-08-09T02:04:29.045Z,88.64
2022-08-09T02:05:35.505Z,88.43
2022-08-09T02:06:30.024Z,88.74
2022-08-09T02:08:38.413Z,88.43
2022-08-09T02:08:38.590Z,88.74
2022-08-09T02:09:42.261Z,87.82
2022-08-09T02:10:30.395Z,89.04
2022-08-09T02:11:42.168Z,89.04
2022-08-09T02:12:30.774Z,89.45
2022-08-09T02:13:37.558Z,89.34
2022-08-09T02:14:29.907Z,89.24
2022-08-09T02:15:48.906Z,89.14
2022-08-09T02:16:33.911Z,89.34
2022-08-09T02:18:00.573Z,89.24
2022-08-09T02:18:29.861Z,89.14
2022-08-09T02:19:38.737Z,89.24
2022-08-09T02:20:32.783Z,89.04
2022-08-09T02:21:28.847Z,89.85
2022-08-09T02:22:31.765Z,89.95
2022-08-09T02:23:39.548Z,89.04
2022-08-09T02:24:29.797Z,89.45
2022-08-09T02:25:28.812Z,88.84
2022-08-09T02:26:28.785Z,89.14
2022-08-09T02:27:58.158Z,88.64
2022-08-09T02:28:29.784Z,88.84
2022-08-09T02:29:28.757Z,88.94
2022-08-09T02:30:28.732Z,88.68
2022-08-09T02:31:28.724Z,88.68
2022-08-09T02:32:29.772Z,88.37
2022-08-09T02:33:58.402Z,88.37
2022-08-09T02:34:41.608Z,89.08
2022-08-09T02:35:46.280Z,88.98
2022-08-09T02:36:29.669Z,89.39
2022-08-09T02:37:31.839Z,89.79
2022-08-09T02:38:29.746Z,89.69
2022-08-09T02:39:34.016Z,89.69
2022-08-09T02:40:30.508Z,89.48
2022-08-09T02:41:28.624Z,89.48
2022-08-09T02:42:28.600Z,89.48
2022-08-09T02:43:28.713Z,89.39
2022-08-09T02:44:29.316Z,89.69
2022-08-09T02:45:28.847Z,89.48
2022-08-09T02:46:28.790Z,89.48
2022-08-09T02:47:28.548Z,89.43
2022-08-09T02:48:30.744Z,89.48
2022-08-09T02:49:38.795Z,89.59
2022-08-09T02:50:29.519Z,89.63
2022-08-09T02:51:28.500Z,88.98
2022-08-09T02:52:29.512Z,89.23
2022-08-09T02:53:28.500Z,89.94
2022-08-09T02:54:28.462Z,89.53
2022-08-09T02:55:39.346Z,89.73
2022-08-09T02:56:29.446Z,89.73
2022-08-09T02:57:28.431Z,89.69
2022-08-09T02:58:36.331Z,90.14
2022-08-09T02:59:36.274Z,90.84
2022-08-09T03:00:29.396Z,90.44
2022-08-09T03:01:42.663Z,90.24
2022-08-09T03:02:29.549Z,90.84
2022-08-09T03:04:13.084Z,90.84
2022-08-09T03:04:29.762Z,90.75
2022-08-09T03:05:28.437Z,91.25
2022-08-09T03:06:29.135Z,91.15
2022-08-09T03:07:28.341Z,90.95
2022-08-09T03:08:28.310Z,90.64
2022-08-09T03:09:33.715Z,90.95
2022-08-09T03:10:29.287Z,91.46
2022-08-09T03:12:04.177Z,91.25
2022-08-09T03:12:29.362Z,91.86
2022-08-09T03:13:28.256Z,91.35
2022-08-09T03:14:29.250Z,91.25
2022-08-09T03:16:04.446Z,91.55
2022-08-09T03:16:29.267Z,91.55
2022-08-09T03:17:28.214Z,91.75
2022-08-09T03:18:31.048Z,91.75
2022-08-09T03:19:52.449Z,91.55
2022-08-09T03:20:29.635Z,91.66
2022-08-09T03:21:28.178Z,91.60
2022-08-09T03:22:30.380Z,91.46
2022-08-09T03:23:28.144Z,91.60
2022-08-09T03:24:42.094Z,91.80
2022-08-09T03:25:57.778Z,91.09
2022-08-09T03:26:31.910Z,91.05
2022-08-09T03:27:28.122Z,90.99
2022-08-09T03:28:29.117Z,90.69
2022-08-09T03:29:28.089Z,91.30
2022-08-09T03:30:33.102Z,91.55
2022-08-09T03:31:28.057Z,91.75
2022-08-09T03:32:28.058Z,91.55
2022-08-09T03:33:52.984Z,91.80
2022-08-09T03:34:29.024Z,91.75
2022-08-09T03:36:11.873Z,91.80
2022-08-09T03:36:28.997Z,91.60
2022-08-09T03:37:56.414Z,91.80
2022-08-09T03:38:30.340Z,91.70
2022-08-09T03:39:28.839Z,91.60
2022-08-09T03:40:30.853Z,91.80
2022-08-09T03:41:29.979Z,91.39
2022-08-09T03:42:29.059Z,91.70
2022-08-09T03:43:31.581Z,91.50
2022-08-09T03:44:27.916Z,92.00
2022-08-09T03:46:04.918Z,91.39
2022-08-09T03:46:29.377Z,90.79
2022-08-09T03:47:27.880Z,90.58
2022-08-09T03:48:30.951Z,90.48
2022-08-09T03:49:29.975Z,91.34
2022-08-09T03:50:31.859Z,90.99
2022-08-09T03:51:43.821Z,90.79
2022-08-09T03:52:28.818Z,90.69
2022-08-09T03:53:32.165Z,90.79
2022-08-09T03:54:29.111Z,91.24
2022-08-09T03:55:30.119Z,91.34
2022-08-09T03:56:27.774Z,91.24
2022-08-09T03:57:27.774Z,91.19
2022-08-09T03:58:27.748Z,91.24
2022-08-09T03:59:43.203Z,91.30
2022-08-09T04:00:28.757Z,91.24
2022-08-09T04:01:27.727Z,91.13
2022-08-09T04:02:28.698Z,91.13
2022-08-09T04:03:45.778Z,90.69
2022-08-09T04:04:36.197Z,90.93
2022-08-09T04:05:28.674Z,90.83
2022-08-09T04:06:27.669Z,90.53
2022-08-09T04:07:47.380Z,90.62
2022-08-09T04:08:29.043Z,90.53
2022-08-09T04:09:48.250Z,91.24
2022-08-09T04:10:30.388Z,91.03
2022-08-09T04:11:27.609Z,91.34
2022-08-09T04:12:30.842Z,91.74
2022-08-09T04:14:37.546Z,91.85
2022-08-09T04:14:52.879Z,91.64
2022-08-09T04:15:40.416Z,91.64
2022-08-09T04:16:28.557Z,91.74
2022-08-09T04:17:29.591Z,91.50
2022-08-09T04:18:28.219Z,91.54
2022-08-09T04:19:42.809Z,92.05
2022-08-09T04:20:28.967Z,91.19
2022-08-09T04:21:27.495Z,90.79
2022-08-09T04:22:28.821Z,91.34
2022-08-09T04:23:27.476Z,90.79
2022-08-09T04:24:27.460Z,90.93
2022-08-09T04:25:27.465Z,90.93
2022-08-09T04:26:35.182Z,90.93
2022-08-09T04:27:29.103Z,90.93
2022-08-09T04:28:33.301Z,90.93
2022-08-09T04:29:30.013Z,90.93
2022-08-09T04:30:28.810Z,91.24
2022-08-09T04:31:37.695Z,90.73
2022-08-09T04:32:33.606Z,90.83
2022-08-09T04:33:28.717Z,90.73
2022-08-09T04:34:30.762Z,90.73
2022-08-09T04:35:27.351Z,90.42
2022-08-09T04:36:27.345Z,90.83
2022-08-09T04:37:45.156Z,90.77
2022-08-09T04:38:28.303Z,90.67
2022-08-09T04:39:30.941Z,91.08
2022-08-09T04:40:36.046Z,90.93
2022-08-09T04:41:32.291Z,90.93
2022-08-09T04:42:28.258Z,90.93
2022-08-09T04:43:27.258Z,91.34
2022-08-09T04:44:28.246Z,91.34
2022-08-09T04:45:30.823Z,91.54
2022-08-09T04:46:57.565Z,91.85
2022-08-09T04:47:28.206Z,91.54
2022-08-09T04:48:33.450Z,92.25
2022-08-09T04:49:40.430Z,92.55
2022-08-09T04:50:31.908Z,92.86
2022-08-09T04:51:28.232Z,92.76
2022-08-09T04:52:28.157Z,92.35
2022-08-09T04:53:27.146Z,92.65
2022-08-09T04:54:27.140Z,93.06
2022-08-09T04:55:27.120Z,93.26
2022-08-09T04:56:28.108Z,92.86
2022-08-09T04:57:27.148Z,93.16
2022-08-09T04:58:28.098Z,93.37
2022-08-09T04:59:27.074Z,93.26
2022-08-09T05:00:31.634Z,93.37
2022-08-09T05:01:27.065Z,93.41
2022-08-09T05:02:27.173Z,93.57
2022-08-09T05:03:40.614Z,93.57
2022-08-09T05:04:30.655Z,94.18
2022-08-09T05:05:31.979Z,93.26
2022-08-09T05:06:30.605Z,93.30
2022-08-09T05:07:27.667Z,93.26
2022-08-09T05:08:26.975Z,93.77
2022-08-09T05:09:42.098Z,94.07
2022-08-09T05:10:27.954Z,94.38
2022-08-09T05:11:26.980Z,94.27
2022-08-09T05:12:26.932Z,93.67
2022-08-09T05:13:26.923Z,93.37
2022-08-09T05:14:27.015Z,93.73
2022-08-09T05:15:38.995Z,93.37
2022-08-09T05:16:31.703Z,93.67
2022-08-09T05:18:37.484Z,93.37
2022-08-09T05:18:38.717Z,93.77
2022-08-09T05:19:44.497Z,93.77
2022-08-09T05:20:29.976Z,93.73
2022-08-09T05:21:30.218Z,94.03
2022-08-09T05:23:51.053Z,94.43
2022-08-09T05:23:53.534Z,94.23
2022-08-09T05:24:27.797Z,93.46
2022-08-09T05:25:32.377Z,93.83
2022-08-09T05:26:36.715Z,93.73
2022-08-09T05:27:27.767Z,93.42
2022-08-09T05:28:26.763Z,93.52
2022-08-09T05:29:31.491Z,93.42
2022-08-09T05:30:31.159Z,93.52
2022-08-09T05:31:44.870Z,93.27
2022-08-09T05:32:30.049Z,93.83
2022-08-09T05:33:32.706Z,93.27
2022-08-09T05:34:31.340Z,93.38
2022-08-09T05:35:27.683Z,94.09
2022-08-09T05:36:28.954Z,93.38
2022-08-09T05:37:26.669Z,93.07
2022-08-09T05:38:27.977Z,93.48
2022-08-09T05:39:29.018Z,93.33
2022-08-09T05:40:26.616Z,92.83
2022-08-09T05:41:26.635Z,92.79
2022-08-09T05:42:28.178Z,92.48
2022-08-09T05:43:28.981Z,91.63
2022-08-09T05:44:29.110Z,91.22
2022-08-09T05:45:27.582Z,91.12
2022-08-09T05:46:27.582Z,90.33
2022-08-09T05:47:27.102Z,89.32
2022-08-09T05:48:32.733Z,89.52
2022-08-09T05:50:14.870Z,87.76
2022-08-09T05:50:50.742Z,87.60
2022-08-09T05:51:42.322Z,87.56
2022-08-09T05:52:27.577Z,88.57
2022-08-09T05:53:33.235Z,87.41
2022-08-09T05:54:27.468Z,87.32
2022-08-09T05:55:26.455Z,86.77
2022-08-09T05:56:26.457Z,86.07
2022-08-09T05:57:55.120Z,85.66
2022-08-09T05:58:27.415Z,85.42
2022-08-09T05:59:26.413Z,85.17
2022-08-09T06:00:26.406Z,83.97
2022-08-09T06:01:26.403Z,83.42
2022-08-09T06:02:27.459Z,83.02
2022-08-09T06:03:34.640Z,82.68
2022-08-09T06:04:34.548Z,82.48
2022-08-09T06:05:31.203Z,82.10
2022-08-09T06:06:27.331Z,81.19
2022-08-09T06:07:26.363Z,80.35
2022-08-09T06:08:26.358Z,79.74
2022-08-09T06:09:54.417Z,78.23
2022-08-09T06:10:27.334Z,78.44
2022-08-09T06:11:41.215Z,78.94
2022-08-09T06:12:27.296Z,78.94
2022-08-09T06:13:27.003Z,78.34
2022-08-09T06:14:26.369Z,78.14
2022-08-09T06:15:26.546Z,78.30
2022-08-09T06:16:26.222Z,77.96
2022-08-09T06:17:26.285Z,77.62
2022-08-09T06:18:27.215Z,76.62
2022-08-09T06:19:27.635Z,75.68
2022-08-09T06:20:26.186Z,75.04
2022-08-09T06:21:26.180Z,74.40
2022-08-09T06:22:26.316Z,74.07
2022-08-09T06:23:58.785Z,73.63
2022-08-09T06:24:27.142Z,72.33
2022-08-09T06:25:26.121Z,72.13
2022-08-09T06:26:28.597Z,72.33
2022-08-09T06:27:26.212Z,72.13
2022-08-09T06:28:27.516Z,71.63
2022-08-09T06:29:26.851Z,72.69
2022-08-09T06:30:26.094Z,71.86
2022-08-09T06:31:30.449Z,71.62
2022-08-09T06:32:59.108Z,70.29
2022-08-09T06:33:39.807Z,70.03
2022-08-09T06:34:30.789Z,70.32
2022-08-09T06:35:56.521Z,70.32
2022-08-09T06:36:29.741Z,70.32
2022-08-09T06:37:29.006Z,69.89
2022-08-09T06:38:32.256Z,69.69
2022-08-09T06:39:39.586Z,69.89
2022-08-09T06:40:27.036Z,69.89
2022-08-09T06:42:00.467Z,69.79
2022-08-09T06:42:30.592Z,69.26
2022-08-09T06:43:26.932Z,69.46
2022-08-09T06:44:26.926Z,68.26
2022-08-09T06:46:05.083Z,68.66
2022-08-09T06:46:40.425Z,69.16
2022-08-09T06:47:29.978Z,68.96
2022-08-09T06:48:30.938Z,69.26
2022-08-09T06:49:44.721Z,69.06
2022-08-09T06:50:26.863Z,69.13
2022-08-09T06:51:25.838Z,67.83
2022-08-09T06:52:25.923Z,67.93
2022-08-09T06:53:25.964Z,68.82
2022-08-09T06:54:26.294Z,68.33
2022-08-09T06:55:25.797Z,68.23
2022-08-09T06:56:30.931Z,68.23
2022-08-09T06:58:01.478Z,68.73
2022-08-09T06:58:40.855Z,68.63
2022-08-09T07:00:51.713Z,68.63
2022-08-09T07:00:54.465Z,68.52
2022-08-09T07:01:27.478Z,67.72
2022-08-09T07:02:29.439Z,68.63
2022-08-09T07:03:27.921Z,68.52
2022-08-09T07:04:27.111Z,68.96
2022-08-09T07:06:02.720Z,69.36
2022-08-09T07:06:28.019Z,69.93
2022-08-09T07:07:28.529Z,68.63
2022-08-09T07:08:26.669Z,68.43
2022-08-09T07:09:55.663Z,69.02
2022-08-09T07:10:32.021Z,69.06
2022-08-09T07:11:26.616Z,68.73
2022-08-09T07:12:38.414Z,69.93
2022-08-09T07:13:28.036Z,69.73
2022-08-09T07:14:26.444Z,68.56
2022-08-09T07:15:54.073Z,68.86
2022-08-09T07:16:43.972Z,69.46
2022-08-09T07:17:26.551Z,70.56
2022-08-09T07:18:26.543Z,70.26
2022-08-09T07:19:25.547Z,69.96
2022-08-09T07:20:25.522Z,70.26
2022-08-09T07:21:25.509Z,69.93
2022-08-09T07:22:34.349Z,70.53
2022-08-09T07:23:26.493Z,69.93
2022-08-09T07:24:32.197Z,70.19
2022-08-09T07:25:26.472Z,69.69
2022-08-09T07:26:25.465Z,69.09
2022-08-09T07:27:27.146Z,67.69
2022-08-09T07:28:28.140Z,68.89
2022-08-09T07:29:25.494Z,68.49
2022-08-09T07:30:28.850Z,68.10
2022-08-09T07:31:26.417Z,67.99
2022-08-09T07:32:32.165Z,67.69
2022-08-09T07:33:26.419Z,67.83
2022-08-09T07:34:25.735Z,67.76
2022-08-09T07:35:25.788Z,69.46
2022-08-09T07:36:25.353Z,69.16
2022-08-09T07:37:25.337Z,69.02
2022-08-09T07:38:25.332Z,69.06
2022-08-09T07:39:41.617Z,68.63
2022-08-09T07:40:26.915Z,69.02
2022-08-09T07:41:25.292Z,69.13
2022-08-09T07:42:32.952Z,69.02
2022-08-09T07:43:26.401Z,68.49
2022-08-09T07:44:33.112Z,67.63
2022-08-09T07:45:39.918Z,67.99
2022-08-09T07:46:27.630Z,68.23
2022-08-09T07:47:25.312Z,68.89
2022-08-09T07:48:30.150Z,69.29
2022-08-09T07:49:26.391Z,69.09
2022-08-09T07:50:32.999Z,68.19
2022-08-09T07:52:06.298Z,67.30
2022-08-09T07:52:26.171Z,67.19
2022-08-09T07:53:36.409Z,68.49
2022-08-09T07:54:28.218Z,67.19
2022-08-09T07:55:25.140Z,66.70
2022-08-09T07:56:26.841Z,66.96
2022-08-09T07:57:35.600Z,66.27
2022-08-09T07:59:50.935Z,67.36
2022-08-09T08:00:59.083Z,67.36
2022-08-09T08:01:40.060Z,66.96
2022-08-09T08:02:42.588Z,66.73
2022-08-09T08:03:39.000Z,66.63
2022-08-09T08:04:39.054Z,66.13
2022-08-09T08:05:54.212Z,66.03
2022-08-09T08:06:55.667Z,67.13
2022-08-09T08:09:01.060Z,65.44
2022-08-09T08:09:02.066Z,65.83
2022-08-09T08:09:51.731Z,65.64
2022-08-09T08:10:39.921Z,64.94
2022-08-09T08:12:10.009Z,66.83
2022-08-09T08:12:42.861Z,67.90
2022-08-09T08:13:55.880Z,66.70
2022-08-09T08:14:39.864Z,66.30
2022-08-09T08:15:39.438Z,65.80
2022-08-09T08:16:39.650Z,66.57
2022-08-09T08:17:53.211Z,65.87
2022-08-09T08:18:39.817Z,67.27
2022-08-09T08:19:38.807Z,66.74
2022-08-09T08:20:38.798Z,66.34
2022-08-09T08:21:39.803Z,64.15
2022-08-09T08:22:39.802Z,63.75
2022-08-09T08:23:38.765Z,63.62
2022-08-09T08:24:40.732Z,66.61
2022-08-09T08:25:44.146Z,66.61
2022-08-09T08:26:54.881Z,65.21
2022-08-09T08:27:40.921Z,64.12
2022-08-09T08:28:38.706Z,63.82
2022-08-09T08:29:39.660Z,62.40
2022-08-09T08:30:39.691Z,62.92
2022-08-09T08:31:56.545Z,63.98
2022-08-09T08:32:39.806Z,63.89
2022-08-09T08:33:40.766Z,61.99
2022-08-09T08:34:39.643Z,63.79
2022-08-09T08:35:58.377Z,63.49
2022-08-09T08:36:40.125Z,63.49
2022-08-09T08:37:41.898Z,63.59
2022-08-09T08:38:39.595Z,63.49
2022-08-09T08:39:43.732Z,64.15
2022-08-09T08:40:39.585Z,64.06
2022-08-09T08:41:50.381Z,63.66
2022-08-09T08:42:39.564Z,61.87
2022-08-09T08:43:38.544Z,61.67
2022-08-09T08:44:39.465Z,61.47
2022-08-09T08:45:38.534Z,62.07
2022-08-09T08:47:00.036Z,61.87
2022-08-09T08:47:42.823Z,61.27
2022-08-09T08:48:39.485Z,60.05
2022-08-09T08:49:47.130Z,61.74
2022-08-09T08:50:39.462Z,61.74
2022-08-09T08:51:41.535Z,63.30
2022-08-09T08:52:59.015Z,63.40
2022-08-09T08:53:39.444Z,61.31
2022-08-09T08:54:39.418Z,61.71
2022-08-09T08:55:38.419Z,61.71
2022-08-09T08:56:38.399Z,60.61
2022-08-09T08:57:38.393Z,59.55
2022-08-09T08:58:38.392Z,61.83
2022-08-09T08:59:47.022Z,61.04
2022-08-09T09:00:39.352Z,60.94
2022-08-09T09:01:52.189Z,61.74
2022-08-09T09:02:39.711Z,62.04
2022-08-09T09:03:38.456Z,60.25
2022-08-09T09:04:47.762Z,60.94
2022-08-09T09:05:58.973Z,61.51
2022-08-09T09:06:39.291Z,60.42
2022-08-09T09:07:42.421Z,59.92
2022-08-09T09:08:42.167Z,60.42
2022-08-09T09:09:58.333Z,59.62
2022-08-09T09:10:39.255Z,59.32
2022-08-09T09:11:38.509Z,60.71
2022-08-09T09:12:38.239Z,59.12
2022-08-09T09:13:50.297Z,59.12
2022-08-09T09:14:39.205Z,61.80
2022-08-09T09:15:38.195Z,59.52
2022-08-09T09:16:38.194Z,61.71
2022-08-09T09:17:49.046Z,61.80
2022-08-09T09:18:39.188Z,61.28
2022-08-09T09:19:41.423Z,60.98
2022-08-09T09:20:38.141Z,59.19
2022-08-09T09:21:43.232Z,61.28
2022-08-09T09:22:39.324Z,59.30
2022-08-09T09:23:38.191Z,59.99
2022-08-09T09:24:38.790Z,61.28
2022-08-09T09:26:01.499Z,60.96
2022-08-09T09:26:39.095Z,58.57
2022-08-09T09:28:06.448Z,59.36
2022-08-09T09:29:03.525Z,60.06
2022-08-09T09:30:10.619Z,60.23
2022-08-09T09:30:39.893Z,60.63
2022-08-09T09:32:07.115Z,56.36
2022-08-09T09:32:39.061Z,56.16
2022-08-09T09:33:44.954Z,56.95
2022-08-09T09:34:39.009Z,57.35
2022-08-09T09:35:38.978Z,58.54
2022-08-09T09:36:37.962Z,58.42
2022-08-09T09:37:40.652Z,57.75
2022-08-09T09:38:37.943Z,57.65
2022-08-09T09:39:50.213Z,56.46
2022-08-09T09:40:38.940Z,56.85
2022-08-09T09:41:48.603Z,57.55
2022-08-09T09:42:38.898Z,58.12
2022-08-09T09:43:41.533Z,57.62
2022-08-09T09:44:38.887Z,57.03
2022-08-09T09:45:56.802Z,57.03
2022-08-09T09:46:41.737Z,58.09
2022-08-09T09:47:47.618Z,56.40
2022-08-09T09:48:38.833Z,55.61
2022-08-09T09:49:56.276Z,56.51
2022-08-09T09:50:38.832Z,56.60
2022-08-09T09:51:40.382Z,56.43
2022-08-09T09:52:37.857Z,57.99
2022-08-09T09:53:57.984Z,56.73
2022-08-09T09:54:38.766Z,54.45
2022-08-09T09:55:37.762Z,54.28
2022-08-09T09:56:37.758Z,56.26
2022-08-09T09:58:02.227Z,56.95
2022-08-09T09:58:38.724Z,56.06
2022-08-09T09:59:37.714Z,56.06
2022-08-09T10:00:37.713Z,57.45
2022-08-09T10:01:40.742Z,58.64
2022-08-09T10:02:37.678Z,57.55
2022-08-09T10:03:37.769Z,56.04
2022-08-09T10:04:37.743Z,56.53
2022-08-09T10:06:00.571Z,56.83
2022-08-09T10:06:38.634Z,57.00
2022-08-09T10:07:37.627Z,55.44
2022-08-09T10:08:54.448Z,56.13
2022-08-09T10:09:40.868Z,55.54
2022-08-09T10:10:38.622Z,58.22
2022-08-09T10:12:00.841Z,59.48
2022-08-09T10:12:43.794Z,56.21
2022-08-09T10:13:43.721Z,55.61
2022-08-09T10:14:38.626Z,57.59
2022-08-09T10:16:09.062Z,56.40
2022-08-09T10:16:56.082Z,57.00
2022-08-09T10:17:50.735Z,57.57
2022-08-09T10:18:38.510Z,54.02
2022-08-09T10:19:38.509Z,54.82
2022-08-09T10:20:44.793Z,53.33
2022-08-09T10:21:38.491Z,54.22
2022-08-09T10:22:37.462Z,54.79
2022-08-09T10:23:37.453Z,55.98
2022-08-09T10:24:37.468Z,56.30
2022-08-09T10:26:06.836Z,54.72
2022-08-09T10:26:38.419Z,56.87
2022-08-09T10:27:45.162Z,55.78
2022-08-09T10:28:38.536Z,54.79
2022-08-09T10:30:48.093Z,54.20
2022-08-09T10:32:42.502Z,55.58
2022-08-09T10:34:08.976Z,54.30
2022-08-09T10:34:38.333Z,54.39
2022-08-09T10:35:37.342Z,55.19
2022-08-09T10:36:37.322Z,55.68
2022-08-09T10:37:38.973Z,56.38
2022-08-09T10:38:56.490Z,56.65
2022-08-09T10:39:40.625Z,55.98
2022-08-09T10:40:41.114Z,57.04
2022-08-09T10:41:38.267Z,56.25
2022-08-09T10:42:37.249Z,54.77
2022-08-09T10:43:47.026Z,57.64
2022-08-09T10:44:39.847Z,56.15
2022-08-09T10:45:42.369Z,55.85
2022-08-09T10:46:52.602Z,54.96
2022-08-09T10:48:16.431Z,54.30
2022-08-09T10:48:38.210Z,56.68
2022-08-09T10:49:50.170Z,55.68
2022-08-09T10:50:38.151Z,54.00
2022-08-09T10:51:41.250Z,54.30
2022-08-09T10:52:37.132Z,54.37
2022-08-09T10:53:39.484Z,54.00
2022-08-09T10:54:38.108Z,53.80
2022-08-09T10:55:55.379Z,54.00
2022-08-09T10:56:38.089Z,55.88
2022-08-09T10:57:37.779Z,54.39
2022-08-09T10:58:37.666Z,54.69
2022-08-09T10:59:55.544Z,54.67
2022-08-09T11:00:41.780Z,55.43
2022-08-09T11:03:12.076Z,54.54
2022-08-09T11:03:13.339Z,52.78
2022-08-09T11:03:51.001Z,54.35
2022-08-09T11:04:38.063Z,54.54
2022-08-09T11:05:38.053Z,55.43
2022-08-09T11:06:37.980Z,52.69
2022-08-09T11:07:58.244Z,52.88
2022-08-09T11:08:43.732Z,52.98
2022-08-09T11:09:37.955Z,53.08
2022-08-09T11:10:36.933Z,54.57
2022-08-09T11:11:36.926Z,54.77
2022-08-09T11:12:38.392Z,55.96
2022-08-09T11:13:50.530Z,52.76
2022-08-09T11:14:37.982Z,54.47
2022-08-09T11:15:38.521Z,52.59
2022-08-09T11:16:38.081Z,53.67
2022-08-09T11:17:41.721Z,52.98
2022-08-09T11:18:37.847Z,53.88
2022-08-09T11:20:10.600Z,54.27
2022-08-09T11:20:37.821Z,53.90
2022-08-09T11:21:36.811Z,54.39
2022-08-09T11:22:37.062Z,52.91
2022-08-09T11:23:36.789Z,52.88
2022-08-09T11:24:36.784Z,53.70
2022-08-09T11:25:47.906Z,54.69
2022-08-09T11:26:37.758Z,52.44
2022-08-09T11:28:02.323Z,53.01
2022-08-09T11:28:54.292Z,55.32
2022-08-09T11:30:06.253Z,54.99
2022-08-09T11:30:38.486Z,53.31
2022-08-09T11:31:36.955Z,54.17
2022-08-09T11:32:36.693Z,55.36
2022-08-09T11:33:36.680Z,52.69
2022-08-09T11:34:36.687Z,52.88
2022-08-09T11:35:49.345Z,52.69
2022-08-09T11:36:37.667Z,52.81
2022-08-09T11:37:40.857Z,52.61
2022-08-09T11:38:41.426Z,52.91
2022-08-09T11:39:38.596Z,52.54
2022-08-09T11:40:36.617Z,54.20
2022-08-09T11:41:38.374Z,52.51
2022-08-09T11:42:36.598Z,52.71
2022-08-09T11:43:37.432Z,53.41
2022-08-09T11:44:36.560Z,52.19
2022-08-09T11:45:42.087Z,53.97
2022-08-09T11:46:37.554Z,52.88
2022-08-09T11:47:36.555Z,52.66
2022-08-09T11:48:36.536Z,52.26
2022-08-09T11:49:58.247Z,53.33
2022-08-09T11:50:54.223Z,52.07
2022-08-09T11:53:02.308Z,51.97
2022-08-09T11:53:06.296Z,52.07
2022-08-09T11:53:58.799Z,50.98
2022-08-09T11:54:37.460Z,50.85
2022-08-09T11:55:53.258Z,50.29
2022-08-09T11:56:42.414Z,50.18
2022-08-09T11:57:56.874Z,51.67
2022-08-09T11:58:37.415Z,52.96
2022-08-09T11:59:37.809Z,52.96
2022-08-09T12:00:36.392Z,49.79
2022-08-09T12:01:37.753Z,52.36
2022-08-09T12:02:39.866Z,52.26
2022-08-09T12:03:55.473Z,50.36
2022-08-09T12:04:38.215Z,50.36
2022-08-09T12:05:42.375Z,50.38
2022-08-09T12:06:37.319Z,52.26
2022-08-09T12:07:42.121Z,53.03
2022-08-09T12:08:37.311Z,50.46
2022-08-09T12:09:36.332Z,49.96
2022-08-09T12:10:39.582Z,50.95
2022-08-09T12:12:02.038Z,52.04
2022-08-09T12:12:37.278Z,51.25
2022-08-09T12:14:07.990Z,50.36
2022-08-09T12:14:40.752Z,52.31
2022-08-09T12:15:48.773Z,52.01
2022-08-09T12:16:39.865Z,52.93
2022-08-09T12:17:44.746Z,52.61
2022-08-09T12:18:37.205Z,54.10
2022-08-09T12:19:36.174Z,53.50
2022-08-09T12:20:36.167Z,51.72
2022-08-09T12:21:38.778Z,52.41
2022-08-09T12:22:36.183Z,52.58
2022-08-09T12:23:58.054Z,50.43
2022-08-09T12:24:37.123Z,50.24
2022-08-09T12:25:38.220Z,49.94
2022-08-09T12:26:36.111Z,50.21
2022-08-09T12:28:59.582Z,49.25
2022-08-09T12:29:14.152Z,49.15
2022-08-09T12:29:44.546Z,49.07
2022-08-09T12:30:39.124Z,49.47
2022-08-09T12:31:58.603Z,50.56
2022-08-09T12:32:37.033Z,50.85
2022-08-09T12:33:58.972Z,50.76
2022-08-09T12:34:37.536Z,50.56
2022-08-09T12:35:41.068Z,49.37
2022-08-09T12:36:36.999Z,50.56
2022-08-09T12:37:44.254Z,50.68
2022-08-09T12:38:38.212Z,51.57
2022-08-09T12:39:37.687Z,51.87
2022-08-09T12:40:35.967Z,52.66
2022-08-09T12:41:40.051Z,52.66
2022-08-09T12:42:36.001Z,52.17
2022-08-09T12:44:05.612Z,50.76
2022-08-09T12:44:37.218Z,51.35
2022-08-09T12:45:38.472Z,51.47
2022-08-09T12:46:36.172Z,50.46
2022-08-09T12:47:37.270Z,50.29
2022-08-09T12:48:37.425Z,51.07
2022-08-09T12:49:35.844Z,50.78
2022-08-09T12:50:35.848Z,51.57
2022-08-09T12:52:01.502Z,52.44
2022-08-09T12:52:42.581Z,51.45
2022-08-09T12:53:38.751Z,50.95
2022-08-09T12:54:35.795Z,50.95
2022-08-09T12:56:15.818Z,52.34